sensor_id;sensor_type;location;lat;lon;timestamp;P1;durP1;ratioP1;P2;durP2;ratioP2
36257;SDS011;22294;52.044;4.582;2023-01-04T00:01:25;7.30;;;2.03;;
36257;SDS011;22294;52.044;4.582;2023-01-04T00:03:51;3.35;;;1.50;;
36257;SDS011;22294;52.044;4.582;2023-01-04T00:06:16;4.07;;;1.73;;
36257;SDS011;22294;52.044;4.582;2023-01-04T00:08:42;2.45;;;1.45;;
36257;SDS011;22294;52.044;4.582;2023-01-04T00:11:10;3.55;;;1.75;;
36257;SDS011;22294;52.044;4.582;2023-01-04T00:13:37;3.03;;;1.70;;
36257;SDS011;22294;52.044;4.582;2023-01-04T00:16:03;4.18;;;1.55;;
36257;SDS011;22294;52.044;4.582;2023-01-04T00:18:33;3.28;;;1.50;;
36257;SDS011;22294;52.044;4.582;2023-01-04T00:21:07;2.15;;;1.40;;
36257;SDS011;22294;52.044;4.582;2023-01-04T00:23:37;2.42;;;1.55;;
36257;SDS011;22294;52.044;4.582;2023-01-04T00:26:14;2.85;;;1.45;;
36257;SDS011;22294;52.044;4.582;2023-01-04T00:28:40;4.57;;;1.48;;
36257;SDS011;22294;52.044;4.582;2023-01-04T00:31:07;3.80;;;1.30;;
36257;SDS011;22294;52.044;4.582;2023-01-04T00:33:33;3.65;;;1.30;;
36257;SDS011;22294;52.044;4.582;2023-01-04T00:36:06;3.58;;;1.40;;
36257;SDS011;22294;52.044;4.582;2023-01-04T00:38:33;3.97;;;1.30;;
36257;SDS011;22294;52.044;4.582;2023-01-04T00:41:00;2.35;;;1.48;;
36257;SDS011;22294;52.044;4.582;2023-01-04T00:43:25;2.65;;;1.38;;
36257;SDS011;22294;52.044;4.582;2023-01-04T00:45:51;2.17;;;1.45;;
36257;SDS011;22294;52.044;4.582;2023-01-04T00:48:17;5.10;;;2.55;;
36257;SDS011;22294;52.044;4.582;2023-01-04T00:50:43;4.25;;;2.15;;
36257;SDS011;22294;52.044;4.582;2023-01-04T00:53:10;4.22;;;2.20;;
36257;SDS011;22294;52.044;4.582;2023-01-04T00:55:35;4.45;;;2.00;;
36257;SDS011;22294;52.044;4.582;2023-01-04T00:58:01;5.55;;;2.45;;
36257;SDS011;22294;52.044;4.582;2023-01-04T01:00:26;4.43;;;2.58;;
36257;SDS011;22294;52.044;4.582;2023-01-04T01:02:51;2.90;;;2.30;;
36257;SDS011;22294;52.044;4.582;2023-01-04T01:05:16;4.00;;;2.28;;
36257;SDS011;22294;52.044;4.582;2023-01-04T01:07:42;4.82;;;2.90;;
36257;SDS011;22294;52.044;4.582;2023-01-04T01:10:07;3.45;;;2.17;;
36257;SDS011;22294;52.044;4.582;2023-01-04T01:12:32;5.13;;;2.72;;
36257;SDS011;22294;52.044;4.582;2023-01-04T01:14:58;4.28;;;2.60;;
36257;SDS011;22294;52.044;4.582;2023-01-04T01:17:23;5.75;;;2.53;;
36257;SDS011;22294;52.044;4.582;2023-01-04T01:19:48;6.10;;;2.88;;
36257;SDS011;22294;52.044;4.582;2023-01-04T01:22:14;4.78;;;2.67;;
36257;SDS011;22294;52.044;4.582;2023-01-04T01:24:39;3.85;;;2.90;;
36257;SDS011;22294;52.044;4.582;2023-01-04T01:27:04;4.70;;;2.53;;
36257;SDS011;22294;52.044;4.582;2023-01-04T01:29:30;5.32;;;3.00;;
36257;SDS011;22294;52.044;4.582;2023-01-04T01:31:55;6.55;;;2.83;;
36257;SDS011;22294;52.044;4.582;2023-01-04T01:34:21;4.47;;;2.75;;
36257;SDS011;22294;52.044;4.582;2023-01-04T01:36:47;5.63;;;3.20;;
36257;SDS011;22294;52.044;4.582;2023-01-04T01:39:13;5.15;;;3.13;;
36257;SDS011;22294;52.044;4.582;2023-01-04T01:41:38;6.97;;;3.17;;
36257;SDS011;22294;52.044;4.582;2023-01-04T01:46:45;6.05;;;2.55;;
36257;SDS011;22294;52.044;4.582;2023-01-04T01:49:24;5.70;;;2.55;;
36257;SDS011;22294;52.044;4.582;2023-01-04T01:54:22;4.63;;;2.83;;
36257;SDS011;22294;52.044;4.582;2023-01-04T01:56:51;4.13;;;2.55;;
36257;SDS011;22294;52.044;4.582;2023-01-04T01:59:21;5.28;;;2.45;;
36257;SDS011;22294;52.044;4.582;2023-01-04T02:01:47;3.88;;;2.33;;
36257;SDS011;22294;52.044;4.582;2023-01-04T02:04:13;4.10;;;1.92;;
36257;SDS011;22294;52.044;4.582;2023-01-04T02:06:40;3.83;;;2.33;;
36257;SDS011;22294;52.044;4.582;2023-01-04T02:09:10;6.38;;;2.38;;
36257;SDS011;22294;52.044;4.582;2023-01-04T02:11:36;3.42;;;2.40;;
36257;SDS011;22294;52.044;4.582;2023-01-04T02:14:01;7.85;;;2.90;;
36257;SDS011;22294;52.044;4.582;2023-01-04T02:27:56;5.22;;;2.40;;
36257;SDS011;22294;52.044;4.582;2023-01-04T02:36:44;6.88;;;2.78;;
36257;SDS011;22294;52.044;4.582;2023-01-04T02:42:19;4.93;;;2.97;;
36257;SDS011;22294;52.044;4.582;2023-01-04T02:45:12;3.60;;;3.10;;
36257;SDS011;22294;52.044;4.582;2023-01-04T02:47:41;7.30;;;2.92;;
36257;SDS011;22294;52.044;4.582;2023-01-04T02:50:38;5.68;;;3.00;;
36257;SDS011;22294;52.044;4.582;2023-01-04T02:55:44;3.17;;;2.87;;
36257;SDS011;22294;52.044;4.582;2023-01-04T02:58:38;2.90;;;2.58;;
36257;SDS011;22294;52.044;4.582;2023-01-04T03:01:31;5.60;;;2.53;;
36257;SDS011;22294;52.044;4.582;2023-01-04T03:07:45;4.57;;;2.83;;
36257;SDS011;22294;52.044;4.582;2023-01-04T03:10:32;3.88;;;2.40;;
36257;SDS011;22294;52.044;4.582;2023-01-04T03:13:14;4.18;;;2.70;;
36257;SDS011;22294;52.044;4.582;2023-01-04T03:15:45;3.35;;;2.47;;
36257;SDS011;22294;52.044;4.582;2023-01-04T03:18:24;3.92;;;2.47;;
36257;SDS011;22294;52.044;4.582;2023-01-04T03:20:53;5.40;;;2.50;;
36257;SDS011;22294;52.044;4.582;2023-01-04T03:23:21;5.32;;;2.63;;
36257;SDS011;22294;52.044;4.582;2023-01-04T03:26:09;4.97;;;2.70;;
36257;SDS011;22294;52.044;4.582;2023-01-04T03:28:59;3.05;;;2.72;;
36257;SDS011;22294;52.044;4.582;2023-01-04T03:31:55;6.97;;;2.55;;
36257;SDS011;22294;52.044;4.582;2023-01-04T03:34:44;5.47;;;2.85;;
36257;SDS011;22294;52.044;4.582;2023-01-04T03:37:31;5.07;;;2.45;;
36257;SDS011;22294;52.044;4.582;2023-01-04T03:43:21;5.55;;;2.65;;
36257;SDS011;22294;52.044;4.582;2023-01-04T03:46:14;5.28;;;2.45;;
36257;SDS011;22294;52.044;4.582;2023-01-04T03:49:10;4.32;;;2.40;;
36257;SDS011;22294;52.044;4.582;2023-01-04T03:51:42;3.92;;;2.83;;
36257;SDS011;22294;52.044;4.582;2023-01-04T03:54:11;3.45;;;2.92;;
36257;SDS011;22294;52.044;4.582;2023-01-04T03:56:41;3.20;;;2.90;;
36257;SDS011;22294;52.044;4.582;2023-01-04T03:59:09;5.40;;;3.17;;
36257;SDS011;22294;52.044;4.582;2023-01-04T04:01:36;4.53;;;3.88;;
36257;SDS011;22294;52.044;4.582;2023-01-04T04:04:02;4.93;;;3.45;;
36257;SDS011;22294;52.044;4.582;2023-01-04T04:06:46;5.70;;;4.63;;
36257;SDS011;22294;52.044;4.582;2023-01-04T04:09:30;6.60;;;4.43;;
36257;SDS011;22294;52.044;4.582;2023-01-04T04:11:56;5.60;;;4.55;;
36257;SDS011;22294;52.044;4.582;2023-01-04T04:14:22;5.40;;;4.35;;
36257;SDS011;22294;52.044;4.582;2023-01-04T04:16:48;5.65;;;4.20;;
36257;SDS011;22294;52.044;4.582;2023-01-04T04:19:13;4.30;;;3.90;;
36257;SDS011;22294;52.044;4.582;2023-01-04T04:21:38;3.85;;;3.40;;
36257;SDS011;22294;52.044;4.582;2023-01-04T04:24:04;4.80;;;3.30;;
36257;SDS011;22294;52.044;4.582;2023-01-04T04:26:30;8.07;;;3.38;;
36257;SDS011;22294;52.044;4.582;2023-01-04T04:28:55;8.85;;;3.10;;
36257;SDS011;22294;52.044;4.582;2023-01-04T04:31:20;5.07;;;3.35;;
36257;SDS011;22294;52.044;4.582;2023-01-04T04:33:46;4.50;;;3.13;;
36257;SDS011;22294;52.044;4.582;2023-01-04T04:36:11;7.28;;;3.15;;
36257;SDS011;22294;52.044;4.582;2023-01-04T04:38:37;4.82;;;3.08;;
36257;SDS011;22294;52.044;4.582;2023-01-04T04:41:11;5.35;;;2.92;;
36257;SDS011;22294;52.044;4.582;2023-01-04T04:43:56;5.90;;;2.75;;
36257;SDS011;22294;52.044;4.582;2023-01-04T04:46:22;5.70;;;2.70;;
36257;SDS011;22294;52.044;4.582;2023-01-04T04:48:47;5.13;;;3.20;;
36257;SDS011;22294;52.044;4.582;2023-01-04T04:51:13;6.22;;;2.78;;
36257;SDS011;22294;52.044;4.582;2023-01-04T04:53:38;5.15;;;2.97;;
36257;SDS011;22294;52.044;4.582;2023-01-04T04:56:04;7.40;;;2.42;;
36257;SDS011;22294;52.044;4.582;2023-01-04T04:58:30;4.75;;;3.00;;
36257;SDS011;22294;52.044;4.582;2023-01-04T05:00:56;4.63;;;3.22;;
36257;SDS011;22294;52.044;4.582;2023-01-04T05:03:21;3.65;;;3.08;;
36257;SDS011;22294;52.044;4.582;2023-01-04T05:05:46;4.68;;;3.25;;
36257;SDS011;22294;52.044;4.582;2023-01-04T05:08:11;4.88;;;3.47;;
36257;SDS011;22294;52.044;4.582;2023-01-04T05:10:37;4.07;;;3.67;;
36257;SDS011;22294;52.044;4.582;2023-01-04T05:13:03;4.45;;;4.05;;
36257;SDS011;22294;52.044;4.582;2023-01-04T05:15:32;5.18;;;3.40;;
36257;SDS011;22294;52.044;4.582;2023-01-04T05:17:59;4.63;;;3.00;;
36257;SDS011;22294;52.044;4.582;2023-01-04T05:20:24;3.95;;;3.50;;
36257;SDS011;22294;52.044;4.582;2023-01-04T05:22:50;5.38;;;3.20;;
36257;SDS011;22294;52.044;4.582;2023-01-04T05:25:15;3.60;;;3.25;;
36257;SDS011;22294;52.044;4.582;2023-01-04T05:27:41;4.03;;;3.20;;
36257;SDS011;22294;52.044;4.582;2023-01-04T05:30:08;4.15;;;3.53;;
36257;SDS011;22294;52.044;4.582;2023-01-04T05:32:54;4.00;;;3.38;;
36257;SDS011;22294;52.044;4.582;2023-01-04T05:35:19;4.72;;;3.70;;
36257;SDS011;22294;52.044;4.582;2023-01-04T05:37:44;5.32;;;3.83;;
36257;SDS011;22294;52.044;4.582;2023-01-04T05:40:10;7.55;;;3.53;;
36257;SDS011;22294;52.044;4.582;2023-01-04T05:42:35;5.13;;;3.97;;
36257;SDS011;22294;52.044;4.582;2023-01-04T05:45:00;5.38;;;4.45;;
36257;SDS011;22294;52.044;4.582;2023-01-04T05:47:26;3.55;;;3.25;;
36257;SDS011;22294;52.044;4.582;2023-01-04T05:49:52;4.30;;;3.28;;
36257;SDS011;22294;52.044;4.582;2023-01-04T05:52:17;3.67;;;3.03;;
36257;SDS011;22294;52.044;4.582;2023-01-04T05:54:43;5.63;;;4.00;;
36257;SDS011;22294;52.044;4.582;2023-01-04T05:57:09;7.40;;;3.47;;
36257;SDS011;22294;52.044;4.582;2023-01-04T05:59:34;3.92;;;3.20;;
36257;SDS011;22294;52.044;4.582;2023-01-04T06:02:00;4.20;;;3.45;;
36257;SDS011;22294;52.044;4.582;2023-01-04T06:04:25;5.07;;;3.58;;
36257;SDS011;22294;52.044;4.582;2023-01-04T06:06:51;5.22;;;3.70;;
36257;SDS011;22294;52.044;4.582;2023-01-04T06:09:16;3.88;;;3.50;;
36257;SDS011;22294;52.044;4.582;2023-01-04T06:11:42;3.63;;;2.88;;
36257;SDS011;22294;52.044;4.582;2023-01-04T06:14:07;5.97;;;3.10;;
36257;SDS011;22294;52.044;4.582;2023-01-04T06:16:32;5.95;;;3.22;;
36257;SDS011;22294;52.044;4.582;2023-01-04T06:18:58;5.65;;;2.70;;
36257;SDS011;22294;52.044;4.582;2023-01-04T06:21:23;5.95;;;2.60;;
36257;SDS011;22294;52.044;4.582;2023-01-04T06:23:49;7.55;;;3.10;;
36257;SDS011;22294;52.044;4.582;2023-01-04T06:26:15;4.45;;;3.08;;
36257;SDS011;22294;52.044;4.582;2023-01-04T06:28:40;6.63;;;3.13;;
36257;SDS011;22294;52.044;4.582;2023-01-04T06:31:06;6.13;;;2.95;;
36257;SDS011;22294;52.044;4.582;2023-01-04T06:33:32;5.07;;;2.65;;
36257;SDS011;22294;52.044;4.582;2023-01-04T06:35:58;5.72;;;2.60;;
36257;SDS011;22294;52.044;4.582;2023-01-04T06:38:24;4.75;;;2.80;;
36257;SDS011;22294;52.044;4.582;2023-01-04T06:40:49;7.45;;;3.35;;
36257;SDS011;22294;52.044;4.582;2023-01-04T06:43:14;5.55;;;2.70;;
36257;SDS011;22294;52.044;4.582;2023-01-04T06:45:40;7.45;;;3.40;;
36257;SDS011;22294;52.044;4.582;2023-01-04T06:48:06;4.75;;;3.35;;
36257;SDS011;22294;52.044;4.582;2023-01-04T06:50:31;8.25;;;3.47;;
36257;SDS011;22294;52.044;4.582;2023-01-04T06:52:56;7.35;;;3.05;;
36257;SDS011;22294;52.044;4.582;2023-01-04T06:55:22;6.25;;;3.03;;
36257;SDS011;22294;52.044;4.582;2023-01-04T06:57:47;7.72;;;2.97;;
36257;SDS011;22294;52.044;4.582;2023-01-04T07:00:13;6.43;;;2.78;;
36257;SDS011;22294;52.044;4.582;2023-01-04T07:02:40;10.05;;;2.90;;
36257;SDS011;22294;52.044;4.582;2023-01-04T07:05:05;7.68;;;3.28;;
36257;SDS011;22294;52.044;4.582;2023-01-04T07:07:31;6.22;;;3.05;;
36257;SDS011;22294;52.044;4.582;2023-01-04T07:09:57;8.57;;;3.03;;
36257;SDS011;22294;52.044;4.582;2023-01-04T07:12:22;7.25;;;2.88;;
36257;SDS011;22294;52.044;4.582;2023-01-04T07:14:48;8.43;;;2.70;;
36257;SDS011;22294;52.044;4.582;2023-01-04T07:17:13;8.75;;;3.10;;
36257;SDS011;22294;52.044;4.582;2023-01-04T07:19:38;16.88;;;3.75;;
36257;SDS011;22294;52.044;4.582;2023-01-04T07:22:04;10.75;;;3.20;;
36257;SDS011;22294;52.044;4.582;2023-01-04T07:24:29;13.80;;;3.50;;
36257;SDS011;22294;52.044;4.582;2023-01-04T07:26:54;12.68;;;3.50;;
36257;SDS011;22294;52.044;4.582;2023-01-04T07:29:20;10.63;;;3.13;;
36257;SDS011;22294;52.044;4.582;2023-01-04T07:31:46;9.95;;;3.00;;
36257;SDS011;22294;52.044;4.582;2023-01-04T07:34:14;12.52;;;2.80;;
36257;SDS011;22294;52.044;4.582;2023-01-04T07:36:40;7.15;;;2.50;;
36257;SDS011;22294;52.044;4.582;2023-01-04T07:39:06;7.65;;;2.67;;
36257;SDS011;22294;52.044;4.582;2023-01-04T07:41:34;10.30;;;2.88;;
36257;SDS011;22294;52.044;4.582;2023-01-04T07:44:00;9.63;;;3.00;;
36257;SDS011;22294;52.044;4.582;2023-01-04T07:46:25;9.18;;;2.55;;
36257;SDS011;22294;52.044;4.582;2023-01-04T07:48:52;7.22;;;2.40;;
36257;SDS011;22294;52.044;4.582;2023-01-04T07:51:17;8.85;;;2.53;;
36257;SDS011;22294;52.044;4.582;2023-01-04T07:53:42;5.70;;;2.15;;
36257;SDS011;22294;52.044;4.582;2023-01-04T07:56:08;7.07;;;2.13;;
36257;SDS011;22294;52.044;4.582;2023-01-04T07:58:33;6.20;;;2.40;;
36257;SDS011;22294;52.044;4.582;2023-01-04T08:01:06;4.20;;;1.50;;
36257;SDS011;22294;52.044;4.582;2023-01-04T08:03:39;5.47;;;1.65;;
36257;SDS011;22294;52.044;4.582;2023-01-04T08:06:09;4.38;;;1.63;;
36257;SDS011;22294;52.044;4.582;2023-01-04T08:08:35;8.52;;;1.90;;
36257;SDS011;22294;52.044;4.582;2023-01-04T08:11:01;6.35;;;2.53;;
36257;SDS011;22294;52.044;4.582;2023-01-04T08:13:32;6.68;;;2.35;;
36257;SDS011;22294;52.044;4.582;2023-01-04T08:15:57;10.52;;;2.33;;
36257;SDS011;22294;52.044;4.582;2023-01-04T08:18:23;11.90;;;2.75;;
36257;SDS011;22294;52.044;4.582;2023-01-04T08:20:48;9.63;;;2.58;;
36257;SDS011;22294;52.044;4.582;2023-01-04T08:23:14;8.65;;;2.15;;
36257;SDS011;22294;52.044;4.582;2023-01-04T08:25:39;10.40;;;2.50;;
36257;SDS011;22294;52.044;4.582;2023-01-04T08:28:04;7.85;;;2.10;;
36257;SDS011;22294;52.044;4.582;2023-01-04T08:30:30;9.98;;;2.13;;
36257;SDS011;22294;52.044;4.582;2023-01-04T08:32:56;9.48;;;1.70;;
36257;SDS011;22294;52.044;4.582;2023-01-04T08:35:21;11.10;;;1.77;;
36257;SDS011;22294;52.044;4.582;2023-01-04T08:37:47;14.60;;;2.80;;
36257;SDS011;22294;52.044;4.582;2023-01-04T08:40:12;22.55;;;3.00;;
36257;SDS011;22294;52.044;4.582;2023-01-04T08:42:37;20.25;;;3.70;;
36257;SDS011;22294;52.044;4.582;2023-01-04T08:45:03;14.07;;;3.13;;
36257;SDS011;22294;52.044;4.582;2023-01-04T08:47:29;15.73;;;3.03;;
36257;SDS011;22294;52.044;4.582;2023-01-04T08:49:55;21.67;;;3.22;;
36257;SDS011;22294;52.044;4.582;2023-01-04T08:52:20;24.25;;;3.90;;
36257;SDS011;22294;52.044;4.582;2023-01-04T08:54:46;25.27;;;4.18;;
36257;SDS011;22294;52.044;4.582;2023-01-04T08:57:13;20.25;;;3.35;;
36257;SDS011;22294;52.044;4.582;2023-01-04T08:59:38;22.27;;;2.90;;
36257;SDS011;22294;52.044;4.582;2023-01-04T09:02:08;15.60;;;3.35;;
36257;SDS011;22294;52.044;4.582;2023-01-04T09:04:42;16.80;;;3.30;;
36257;SDS011;22294;52.044;4.582;2023-01-04T09:07:08;18.52;;;3.30;;
36257;SDS011;22294;52.044;4.582;2023-01-04T09:09:33;18.88;;;3.15;;
36257;SDS011;22294;52.044;4.582;2023-01-04T09:11:58;20.10;;;2.80;;
36257;SDS011;22294;52.044;4.582;2023-01-04T09:14:24;14.45;;;2.50;;
36257;SDS011;22294;52.044;4.582;2023-01-04T09:16:49;15.05;;;3.22;;
36257;SDS011;22294;52.044;4.582;2023-01-04T09:19:14;16.15;;;2.33;;
36257;SDS011;22294;52.044;4.582;2023-01-04T09:21:40;22.52;;;3.20;;
36257;SDS011;22294;52.044;4.582;2023-01-04T09:24:05;20.15;;;3.42;;
36257;SDS011;22294;52.044;4.582;2023-01-04T09:26:31;11.95;;;2.80;;
36257;SDS011;22294;52.044;4.582;2023-01-04T09:28:56;17.58;;;2.63;;
36257;SDS011;22294;52.044;4.582;2023-01-04T09:31:23;17.05;;;3.10;;
36257;SDS011;22294;52.044;4.582;2023-01-04T09:33:49;14.80;;;3.05;;
36257;SDS011;22294;52.044;4.582;2023-01-04T09:36:15;12.38;;;2.58;;
36257;SDS011;22294;52.044;4.582;2023-01-04T09:38:42;13.07;;;2.63;;
36257;SDS011;22294;52.044;4.582;2023-01-04T09:43:53;13.60;;;2.35;;
36257;SDS011;22294;52.044;4.582;2023-01-04T09:48:55;15.77;;;2.20;;
36257;SDS011;22294;52.044;4.582;2023-01-04T09:51:45;17.17;;;2.60;;
36257;SDS011;22294;52.044;4.582;2023-01-04T09:54:18;16.08;;;2.83;;
36257;SDS011;22294;52.044;4.582;2023-01-04T09:56:50;13.65;;;2.40;;
36257;SDS011;22294;52.044;4.582;2023-01-04T09:59:22;18.10;;;2.80;;
36257;SDS011;22294;52.044;4.582;2023-01-04T10:01:54;16.35;;;2.92;;
36257;SDS011;22294;52.044;4.582;2023-01-04T10:07:19;20.88;;;2.70;;
36257;SDS011;22294;52.044;4.582;2023-01-04T10:09:51;21.92;;;2.97;;
36257;SDS011;22294;52.044;4.582;2023-01-04T10:15:06;15.27;;;2.20;;
36257;SDS011;22294;52.044;4.582;2023-01-04T10:20:51;15.85;;;1.80;;
36257;SDS011;22294;52.044;4.582;2023-01-04T10:23:41;16.83;;;2.13;;
36257;SDS011;22294;52.044;4.582;2023-01-04T10:26:44;9.57;;;2.08;;
36257;SDS011;22294;52.044;4.582;2023-01-04T10:29:35;11.77;;;1.70;;
36257;SDS011;22294;52.044;4.582;2023-01-04T10:32:01;11.65;;;1.42;;
36257;SDS011;22294;52.044;4.582;2023-01-04T10:34:40;11.35;;;1.80;;
36257;SDS011;22294;52.044;4.582;2023-01-04T10:40:09;10.45;;;1.48;;
36257;SDS011;22294;52.044;4.582;2023-01-04T10:42:38;10.07;;;2.35;;
36257;SDS011;22294;52.044;4.582;2023-01-04T10:45:19;12.73;;;2.25;;
36257;SDS011;22294;52.044;4.582;2023-01-04T10:50:59;8.98;;;1.65;;
36257;SDS011;22294;52.044;4.582;2023-01-04T10:56:14;9.98;;;1.80;;
36257;SDS011;22294;52.044;4.582;2023-01-04T11:01:41;8.70;;;1.38;;
36257;SDS011;22294;52.044;4.582;2023-01-04T11:07:15;10.02;;;1.70;;
36257;SDS011;22294;52.044;4.582;2023-01-04T11:09:48;8.02;;;1.50;;
36257;SDS011;22294;52.044;4.582;2023-01-04T11:12:19;7.25;;;1.92;;
36257;SDS011;22294;52.044;4.582;2023-01-04T11:14:47;6.18;;;1.70;;
36257;SDS011;22294;52.044;4.582;2023-01-04T11:17:13;6.07;;;1.48;;
36257;SDS011;22294;52.044;4.582;2023-01-04T11:19:39;7.50;;;1.58;;
36257;SDS011;22294;52.044;4.582;2023-01-04T11:22:20;7.15;;;1.10;;
36257;SDS011;22294;52.044;4.582;2023-01-04T11:24:50;12.88;;;1.88;;
36257;SDS011;22294;52.044;4.582;2023-01-04T11:27:21;7.82;;;1.50;;
36257;SDS011;22294;52.044;4.582;2023-01-04T11:29:53;11.80;;;1.80;;
36257;SDS011;22294;52.044;4.582;2023-01-04T11:32:33;9.00;;;1.67;;
36257;SDS011;22294;52.044;4.582;2023-01-04T11:35:06;11.38;;;1.60;;
36257;SDS011;22294;52.044;4.582;2023-01-04T11:37:33;12.15;;;2.28;;
36257;SDS011;22294;52.044;4.582;2023-01-04T11:42:49;14.05;;;2.03;;
36257;SDS011;22294;52.044;4.582;2023-01-04T11:45:22;8.95;;;2.35;;
36257;SDS011;22294;52.044;4.582;2023-01-04T11:47:50;10.95;;;1.77;;
36257;SDS011;22294;52.044;4.582;2023-01-04T11:50:37;12.85;;;2.15;;
36257;SDS011;22294;52.044;4.582;2023-01-04T11:55:50;17.15;;;2.72;;
36257;SDS011;22294;52.044;4.582;2023-01-04T11:58:31;13.15;;;3.15;;
36257;SDS011;22294;52.044;4.582;2023-01-04T12:00:56;16.67;;;2.88;;
36257;SDS011;22294;52.044;4.582;2023-01-04T12:03:33;17.15;;;2.40;;
36257;SDS011;22294;52.044;4.582;2023-01-04T12:06:50;20.70;;;2.50;;
36257;SDS011;22294;52.044;4.582;2023-01-04T12:09:04;15.05;;;2.08;;
36257;SDS011;22294;52.044;4.582;2023-01-04T12:11:37;16.73;;;1.92;;
36257;SDS011;22294;52.044;4.582;2023-01-04T12:14:10;15.63;;;2.37;;
36257;SDS011;22294;52.044;4.582;2023-01-04T12:19:29;15.70;;;2.25;;
36257;SDS011;22294;52.044;4.582;2023-01-04T12:21:56;12.45;;;2.35;;
36257;SDS011;22294;52.044;4.582;2023-01-04T12:24:25;21.85;;;3.28;;
36257;SDS011;22294;52.044;4.582;2023-01-04T12:26:53;14.35;;;2.50;;
36257;SDS011;22294;52.044;4.582;2023-01-04T12:31:50;12.82;;;1.98;;
36257;SDS011;22294;52.044;4.582;2023-01-04T12:37:02;14.25;;;2.05;;
36257;SDS011;22294;52.044;4.582;2023-01-04T12:39:36;11.13;;;2.53;;
36257;SDS011;22294;52.044;4.582;2023-01-04T12:50:01;17.02;;;3.13;;
36257;SDS011;22294;52.044;4.582;2023-01-04T12:52:38;18.80;;;2.53;;
36257;SDS011;22294;52.044;4.582;2023-01-04T13:05:59;15.40;;;2.50;;
36257;SDS011;22294;52.044;4.582;2023-01-04T13:08:27;15.43;;;2.40;;
36257;SDS011;22294;52.044;4.582;2023-01-04T13:10:57;12.38;;;2.38;;
36257;SDS011;22294;52.044;4.582;2023-01-04T13:18:31;15.20;;;2.50;;
36257;SDS011;22294;52.044;4.582;2023-01-04T13:21:10;18.15;;;2.38;;
36257;SDS011;22294;52.044;4.582;2023-01-04T13:23:45;11.57;;;2.28;;
36257;SDS011;22294;52.044;4.582;2023-01-04T13:26:34;12.38;;;2.53;;
36257;SDS011;22294;52.044;4.582;2023-01-04T13:29:14;16.88;;;2.85;;
36257;SDS011;22294;52.044;4.582;2023-01-04T13:34:34;16.13;;;2.58;;
36257;SDS011;22294;52.044;4.582;2023-01-04T13:37:06;17.65;;;2.75;;
36257;SDS011;22294;52.044;4.582;2023-01-04T13:39:35;11.43;;;2.38;;
36257;SDS011;22294;52.044;4.582;2023-01-04T13:42:01;13.68;;;3.15;;
36257;SDS011;22294;52.044;4.582;2023-01-04T13:44:33;19.75;;;3.38;;
36257;SDS011;22294;52.044;4.582;2023-01-04T13:47:27;14.98;;;3.28;;
36257;SDS011;22294;52.044;4.582;2023-01-04T13:49:54;14.35;;;2.30;;
36257;SDS011;22294;52.044;4.582;2023-01-04T13:55:08;12.63;;;2.42;;
36257;SDS011;22294;52.044;4.582;2023-01-04T13:57:55;14.88;;;2.75;;
36257;SDS011;22294;52.044;4.582;2023-01-04T14:00:21;21.67;;;3.38;;
36257;SDS011;22294;52.044;4.582;2023-01-04T14:05:44;16.27;;;2.97;;
36257;SDS011;22294;52.044;4.582;2023-01-04T14:08:13;16.92;;;3.47;;
36257;SDS011;22294;52.044;4.582;2023-01-04T14:10:44;16.80;;;3.00;;
36257;SDS011;22294;52.044;4.582;2023-01-04T14:13:13;16.60;;;2.85;;
36257;SDS011;22294;52.044;4.582;2023-01-04T14:15:41;23.45;;;5.03;;
36257;SDS011;22294;52.044;4.582;2023-01-04T14:18:22;19.15;;;3.75;;
36257;SDS011;22294;52.044;4.582;2023-01-04T14:20:50;19.92;;;4.30;;
36257;SDS011;22294;52.044;4.582;2023-01-04T14:23:31;15.60;;;3.25;;
36257;SDS011;22294;52.044;4.582;2023-01-04T14:25:59;14.40;;;2.92;;
36257;SDS011;22294;52.044;4.582;2023-01-04T14:28:27;15.65;;;3.47;;
36257;SDS011;22294;52.044;4.582;2023-01-04T14:38:40;15.93;;;2.97;;
36257;SDS011;22294;52.044;4.582;2023-01-04T14:43:50;16.77;;;3.22;;
36257;SDS011;22294;52.044;4.582;2023-01-04T14:46:17;18.25;;;3.35;;
36257;SDS011;22294;52.044;4.582;2023-01-04T14:48:44;22.50;;;4.88;;
36257;SDS011;22294;52.044;4.582;2023-01-04T14:51:10;15.82;;;3.42;;
36257;SDS011;22294;52.044;4.582;2023-01-04T14:53:39;26.38;;;4.15;;
36257;SDS011;22294;52.044;4.582;2023-01-04T14:56:06;22.38;;;4.53;;
36257;SDS011;22294;52.044;4.582;2023-01-04T14:58:35;23.92;;;4.07;;
36257;SDS011;22294;52.044;4.582;2023-01-04T15:01:00;27.15;;;4.88;;
36257;SDS011;22294;52.044;4.582;2023-01-04T15:03:25;28.48;;;4.70;;
36257;SDS011;22294;52.044;4.582;2023-01-04T15:05:50;22.90;;;4.15;;
36257;SDS011;22294;52.044;4.582;2023-01-04T15:08:16;26.98;;;4.05;;
36257;SDS011;22294;52.044;4.582;2023-01-04T15:10:41;29.02;;;4.10;;
36257;SDS011;22294;52.044;4.582;2023-01-04T15:13:06;28.77;;;5.13;;
36257;SDS011;22294;52.044;4.582;2023-01-04T15:15:32;26.23;;;4.13;;
36257;SDS011;22294;52.044;4.582;2023-01-04T15:17:57;30.20;;;6.18;;
36257;SDS011;22294;52.044;4.582;2023-01-04T15:20:23;29.35;;;4.72;;
36257;SDS011;22294;52.044;4.582;2023-01-04T15:22:49;26.23;;;5.07;;
36257;SDS011;22294;52.044;4.582;2023-01-04T15:25:14;28.92;;;4.93;;
36257;SDS011;22294;52.044;4.582;2023-01-04T15:27:40;24.17;;;5.40;;
36257;SDS011;22294;52.044;4.582;2023-01-04T15:30:05;29.20;;;4.45;;
36257;SDS011;22294;52.044;4.582;2023-01-04T15:32:31;29.77;;;4.55;;
36257;SDS011;22294;52.044;4.582;2023-01-04T15:34:58;34.45;;;5.32;;
36257;SDS011;22294;52.044;4.582;2023-01-04T15:37:24;28.33;;;5.07;;
36257;SDS011;22294;52.044;4.582;2023-01-04T15:39:49;34.30;;;6.32;;
36257;SDS011;22294;52.044;4.582;2023-01-04T15:42:14;31.40;;;4.85;;
36257;SDS011;22294;52.044;4.582;2023-01-04T15:44:58;32.38;;;5.13;;
36257;SDS011;22294;52.044;4.582;2023-01-04T15:47:24;34.65;;;5.85;;
36257;SDS011;22294;52.044;4.582;2023-01-04T15:49:49;25.25;;;5.00;;
36257;SDS011;22294;52.044;4.582;2023-01-04T15:52:14;32.70;;;5.38;;
36257;SDS011;22294;52.044;4.582;2023-01-04T15:54:40;25.65;;;5.18;;
36257;SDS011;22294;52.044;4.582;2023-01-04T15:57:05;26.80;;;4.90;;
36257;SDS011;22294;52.044;4.582;2023-01-04T15:59:31;33.70;;;5.00;;
36257;SDS011;22294;52.044;4.582;2023-01-04T16:01:56;26.90;;;4.82;;
36257;SDS011;22294;52.044;4.582;2023-01-04T16:04:21;29.98;;;5.55;;
36257;SDS011;22294;52.044;4.582;2023-01-04T16:06:46;29.10;;;5.50;;
36257;SDS011;22294;52.044;4.582;2023-01-04T16:09:12;32.60;;;5.63;;
36257;SDS011;22294;52.044;4.582;2023-01-04T16:11:37;32.60;;;5.20;;
36257;SDS011;22294;52.044;4.582;2023-01-04T16:14:22;30.48;;;5.93;;
36257;SDS011;22294;52.044;4.582;2023-01-04T16:16:48;29.83;;;5.63;;
36257;SDS011;22294;52.044;4.582;2023-01-04T16:19:13;32.00;;;5.10;;
36257;SDS011;22294;52.044;4.582;2023-01-04T16:21:38;30.52;;;5.78;;
36257;SDS011;22294;52.044;4.582;2023-01-04T16:24:04;25.20;;;4.88;;
36257;SDS011;22294;52.044;4.582;2023-01-04T16:26:31;28.20;;;4.75;;
36257;SDS011;22294;52.044;4.582;2023-01-04T16:28:56;37.05;;;8.43;;
36257;SDS011;22294;52.044;4.582;2023-01-04T16:31:21;24.73;;;4.47;;
36257;SDS011;22294;52.044;4.582;2023-01-04T16:33:50;26.17;;;5.07;;
36257;SDS011;22294;52.044;4.582;2023-01-04T16:36:18;30.55;;;6.18;;
36257;SDS011;22294;52.044;4.582;2023-01-04T16:38:44;22.52;;;4.95;;
36257;SDS011;22294;52.044;4.582;2023-01-04T16:41:13;31.08;;;5.20;;
36257;SDS011;22294;52.044;4.582;2023-01-04T16:48:34;29.20;;;5.38;;
36257;SDS011;22294;52.044;4.582;2023-01-04T16:51:02;29.20;;;5.10;;
36257;SDS011;22294;52.044;4.582;2023-01-04T16:53:27;28.95;;;5.57;;
36257;SDS011;22294;52.044;4.582;2023-01-04T16:55:53;25.38;;;4.97;;
36257;SDS011;22294;52.044;4.582;2023-01-04T16:58:18;30.15;;;5.70;;